Time,TemperatureF,DewpointF,PressureIn,WindDirection,WindDirectionDegrees,WindSpeedMPH,WindSpeedGustMPH,Humidity,HourlyPrecipIn,Conditions,Clouds,dailyrainin,SoftwareType,DateUTC
2013-09-16 00:11:00,56.0,52.0,29.77,SE,142,0.0,0.0,85,0.00,,,0.00,,2013-09-16 07:11:00,
2013-09-16 00:21:00,56.0,52.0,29.77,SE,142,0.0,0.0,85,0.00,,,0.00,,2013-09-16 07:21:00,
2013-09-16 00:32:00,56.0,52.0,29.77,SE,142,0.0,0.0,85,0.00,,,0.00,,2013-09-16 07:32:00,
2013-09-16 00:52:00,55.0,51.0,29.77,SE,142,0.0,0.0,85,0.00,,,0.00,,2013-09-16 07:52:00,
2013-09-16 01:11:00,54.0,50.0,29.78,SE,142,0.0,0.0,86,0.00,,,0.00,,2013-09-16 08:11:00,
2013-09-16 01:20:00,53.0,50.0,29.78,SE,142,0.0,0.0,88,0.00,,,0.00,,2013-09-16 08:20:00,
2013-09-16 01:21:00,54.0,50.0,29.78,SE,142,0.0,0.0,86,0.00,,,0.00,,2013-09-16 08:21:00,
2013-09-16 01:52:00,53.0,50.0,29.78,SE,142,0.0,0.0,88,0.00,,,0.00,,2013-09-16 08:52:00,
2013-09-16 02:01:00,53.0,50.0,29.78,SE,142,0.0,0.0,88,0.00,,,0.00,,2013-09-16 09:01:00,
2013-09-16 02:11:00,53.0,50.0,29.78,SE,142,0.0,0.0,88,0.00,,,0.00,,2013-09-16 09:11:00,
2013-09-16 02:53:00,51.0,48.0,29.78,SE,142,0.0,0.0,88,0.00,,,0.00,,2013-09-16 09:53:00,
2013-09-16 03:23:00,50.0,47.0,29.77,SE,142,0.0,0.0,88,0.00,,,0.00,,2013-09-16 10:23:00,
2013-09-16 03:53:00,50.0,47.0,29.78,SE,142,0.0,0.0,88,0.00,,,0.00,,2013-09-16 10:53:00,
2013-09-16 04:11:00,50.0,47.0,29.78,SE,142,0.0,0.0,90,0.00,,,0.00,,2013-09-16 11:11:00,
2013-09-16 04:22:00,50.0,47.0,29.78,SE,142,0.0,0.0,90,0.00,,,0.00,,2013-09-16 11:22:00,
2013-09-16 04:52:00,50.0,47.0,29.78,SE,142,0.0,0.0,91,0.00,,,0.00,,2013-09-16 11:52:00,
2013-09-16 05:01:00,50.0,47.0,29.78,SE,142,0.0,0.0,91,0.00,,,0.00,,2013-09-16 12:01:00,
2013-09-16 05:21:00,51.0,48.0,29.78,SE,142,0.0,0.0,91,0.00,,,0.00,,2013-09-16 12:21:00,
2013-09-16 05:52:00,51.0,48.0,29.78,SE,142,0.0,0.0,91,0.00,,,0.00,,2013-09-16 12:52:00,
2013-09-16 06:21:00,52.0,50.0,29.79,SE,142,0.0,0.0,92,0.00,,,0.00,,2013-09-16 13:21:00,
2013-09-16 06:52:00,52.0,50.0,29.79,SE,142,0.0,0.0,92,0.00,,,0.00,,2013-09-16 13:52:00,
2013-09-16 07:11:00,52.0,50.0,29.79,SE,142,0.0,0.0,93,0.00,,,0.00,,2013-09-16 14:11:00,
2013-09-16 07:21:00,52.0,50.0,29.79,SE,142,0.0,0.0,93,0.00,,,0.00,,2013-09-16 14:21:00,
2013-09-16 07:52:00,53.0,51.0,29.80,SE,142,0.0,0.0,93,0.00,,,0.00,,2013-09-16 14:52:00,
2013-09-16 08:22:00,54.0,52.0,29.80,SE,142,0.0,0.0,94,0.00,,,0.00,,2013-09-16 15:22:00,
2013-09-16 08:53:00,55.0,53.0,29.82,SE,142,0.0,0.0,94,0.00,,,0.00,,2013-09-16 15:53:00,
2013-09-16 09:12:00,56.0,54.0,29.80,SE,142,0.0,0.0,94,0.00,,,0.00,,2013-09-16 16:12:00,
2013-09-16 09:23:00,56.0,54.0,29.80,SE,142,0.0,0.0,94,0.00,,,0.00,,2013-09-16 16:23:00,
2013-09-16 09:52:00,57.0,55.0,29.82,SE,142,0.0,0.0,94,0.00,,,0.00,,2013-09-16 16:52:00,
2013-09-16 10:12:00,58.0,56.0,29.81,SE,142,0.0,0.0,94,0.00,,,0.00,,2013-09-16 17:12:00,
2013-09-16 10:22:00,58.0,56.0,29.81,SE,142,0.0,0.0,94,0.00,,,0.00,,2013-09-16 17:22:00,
2013-09-16 10:33:00,58.0,56.0,29.81,SE,142,0.0,0.0,94,0.00,,,0.00,,2013-09-16 17:33:00,
2013-09-16 10:53:00,61.0,59.0,29.83,SE,142,0.0,0.0,92,0.00,,,0.00,,2013-09-16 17:53:00,
2013-09-16 11:12:00,65.0,60.0,29.80,SE,142,0.0,0.0,85,0.00,,,0.00,,2013-09-16 18:12:00,
2013-09-16 11:22:00,65.0,60.0,29.80,SE,142,0.0,0.0,85,0.00,,,0.00,,2013-09-16 18:22:00,
2013-09-16 11:52:00,73.0,61.0,29.80,East,97,0.0,2.0,66,0.00,,,0.00,,2013-09-16 18:52:00,
2013-09-16 12:01:00,73.0,61.0,29.80,East,97,0.0,2.0,66,0.00,,,0.00,,2013-09-16 19:01:00,
2013-09-16 12:11:00,73.0,61.0,29.80,East,97,0.0,2.0,66,0.00,,,0.00,,2013-09-16 19:11:00,
2013-09-16 12:22:00,73.0,61.0,29.80,East,97,0.0,2.0,66,0.00,,,0.00,,2013-09-16 19:22:00,
2013-09-16 12:53:00,82.0,60.0,29.78,NNE,17,0.0,1.0,48,0.00,,,0.00,,2013-09-16 19:53:00,
2013-09-16 13:52:00,86.0,58.0,29.77,NW,325,0.0,2.0,39,0.00,,,0.00,,2013-09-16 20:52:00,
2013-09-16 14:21:00,87.0,57.0,29.75,NW,324,0.0,3.0,36,0.00,,,0.00,,2013-09-16 21:21:00,
2013-09-16 14:55:00,87.0,57.0,29.74,NNW,337,0.0,4.0,36,0.00,,,0.00,,2013-09-16 21:55:00,
2013-09-16 15:53:00,86.0,55.0,29.71,NNE,23,0.0,4.0,35,0.00,,,0.00,,2013-09-16 22:53:00,
2013-09-16 16:12:00,85.0,53.0,29.70,North,353,0.0,5.0,33,0.00,,,0.00,,2013-09-16 23:12:00,
2013-09-16 16:22:00,85.0,53.0,29.70,North,353,0.0,5.0,33,0.00,,,0.00,,2013-09-16 23:22:00,
2013-09-16 16:52:00,85.0,53.0,29.70,North,5,0.0,3.0,33,0.00,,,0.00,,2013-09-16 23:52:00,
2013-09-16 17:02:00,85.0,53.0,29.70,North,5,0.0,3.0,33,0.00,,,0.00,,2013-09-17 00:02:00,
2013-09-16 17:21:00,85.0,53.0,29.70,North,5,0.0,3.0,33,0.00,,,0.00,,2013-09-17 00:21:00,
2013-09-16 17:52:00,85.0,53.0,29.68,North,9,0.0,5.0,34,0.00,,,0.00,,2013-09-17 00:52:00,
2013-09-16 18:21:00,84.0,54.0,29.68,North,358,0.0,3.0,36,0.00,,,0.00,,2013-09-17 01:21:00,
2013-09-16 18:52:00,79.0,53.0,29.68,North,360,0.0,2.0,40,0.00,,,0.00,,2013-09-17 01:52:00,
2013-09-16 19:22:00,76.0,52.0,29.68,SSW,198,0.0,1.0,44,0.00,,,0.00,,2013-09-17 02:22:00,
2013-09-16 19:42:00,74.0,52.0,29.68,ENE,66,0.0,0.0,47,0.00,,,0.00,,2013-09-17 02:42:00,
2013-09-16 19:52:00,73.0,52.0,29.69,ENE,66,0.0,0.0,48,0.00,,,0.00,,2013-09-17 02:52:00,
2013-09-16 20:11:00,70.0,52.0,29.68,ENE,66,0.0,0.0,53,0.00,,,0.00,,2013-09-17 03:11:00,
2013-09-16 20:23:00,70.0,52.0,29.68,ENE,66,0.0,0.0,53,0.00,,,0.00,,2013-09-17 03:23:00,
2013-09-16 20:54:00,66.0,51.0,29.70,ENE,66,0.0,0.0,59,0.00,,,0.00,,2013-09-17 03:54:00,
2013-09-16 21:04:00,66.0,51.0,29.70,ENE,66,0.0,0.0,59,0.00,,,0.00,,2013-09-17 04:04:00,
2013-09-16 21:24:00,63.0,51.0,29.71,ENE,66,0.0,0.0,64,0.00,,,0.00,,2013-09-17 04:24:00,
2013-09-16 21:54:00,63.0,51.0,29.70,ENE,66,0.0,0.0,65,0.00,,,0.00,,2013-09-17 04:54:00,
2013-09-16 22:23:00,59.0,49.0,29.71,ENE,66,0.0,0.0,70,0.00,,,0.00,,2013-09-17 05:23:00,
2013-09-16 22:52:00,58.0,49.0,29.71,ENE,66,0.0,0.0,73,0.00,,,0.00,,2013-09-17 05:52:00,
2013-09-16 23:12:00,57.0,49.0,29.72,ENE,66,0.0,0.0,75,0.00,,,0.00,,2013-09-17 06:12:00,
2013-09-16 23:21:00,57.0,50.0,29.72,ENE,66,0.0,0.0,76,0.00,,,0.00,,2013-09-17 06:21:00,
2013-09-16 23:32:00,57.0,50.0,29.72,ENE,66,0.0,0.0,76,0.00,,,0.00,,2013-09-17 06:32:00,
2013-09-16 23:52:00,57.0,50.0,29.72,ENE,66,0.0,0.0,76,0.00,,,0.00,,2013-09-17 06:52:00,